T03 EFRO-EFRO

Flight info

Callsign T03
Flight time 0h 51m
Altitude 10000
Route TA
Aircraft PC12/M-SDGR/C

Departure

Time 2026-05-04 15:21
Airport Rovaniemi Airport (EFRO)

Arrival

Time 2026-05-04 16:12
Airport Rovaniemi Airport (EFRO)
Time Latitude Longitude Altitude Speed Heading
2026-05-04 15:13 66.57357 25.84200 631 ft 0 kts 343°
2026-05-04 15:20 66.57352 25.84183 631 ft 7 kts 154°
2026-05-04 15:20 66.57253 25.84276 634 ft 23 kts 156°
2026-05-04 15:21 66.57100 25.84217 632 ft 30 kts 216°
2026-05-04 15:21 66.56854 25.83750 639 ft 72 kts 217°
2026-05-04 15:21 66.55736 25.81619 1269 ft 123 kts 215°
2026-05-04 15:22 66.54993 25.80614 1979 ft 122 kts 179°
2026-05-04 15:22 66.54269 25.81638 2707 ft 124 kts 135°
2026-05-04 15:22 66.54355 25.86086 3958 ft 151 kts 61°
2026-05-04 15:23 66.54916 25.88333 4637 ft 153 kts 65°
2026-05-04 15:23 66.55449 25.90685 5288 ft 158 kts 66°
2026-05-04 15:23 66.55989 25.93125 5948 ft 162 kts 66°
2026-05-04 15:23 66.56536 25.95634 6599 ft 165 kts 66°
2026-05-04 15:24 66.57646 26.00822 8190 ft 171 kts 66°
2026-05-04 15:24 66.58801 26.06341 9590 ft 200 kts 63°
2026-05-04 15:25 66.59908 26.09037 9601 ft 242 kts 35°
2026-05-04 15:25 66.61289 26.11838 9599 ft 265 kts 45°
2026-05-04 15:25 66.62464 26.15521 9594 ft 274 kts 57°
2026-05-04 15:26 66.64587 26.23567 9572 ft 279 kts 55°
2026-05-04 15:26 66.65668 26.27508 9577 ft 272 kts 63°
2026-05-04 15:26 66.68338 26.33912 9563 ft 275 kts 13°
2026-05-04 15:27 66.70213 26.34090 9569 ft 269 kts 345°
2026-05-04 15:27 66.72978 26.28744 9569 ft 249 kts 292°
2026-05-04 15:28 66.73114 26.20498 9562 ft 236 kts 246°
2026-05-04 15:28 66.72214 26.17073 9559 ft 235 kts 225°
2026-05-04 15:28 66.69208 26.14194 9556 ft 242 kts 180°
2026-05-04 15:29 66.67599 26.15297 9564 ft 248 kts 157°
2026-05-04 15:30 66.65326 26.31639 9566 ft 263 kts 115°
2026-05-04 15:30 66.61264 26.38346 9570 ft 238 kts 186°
2026-05-04 15:31 66.58419 26.34740 9571 ft 235 kts 229°
2026-05-04 15:31 66.57637 26.31137 9570 ft 238 kts 250°
2026-05-04 15:32 66.57370 26.18711 9554 ft 246 kts 281°
2026-05-04 15:32 66.59704 26.12354 9707 ft 260 kts 334°
2026-05-04 15:33 66.63040 26.12695 11346 ft 244 kts 25°
2026-05-04 15:34 66.66045 26.24003 11570 ft 278 kts 69°
2026-05-04 15:34 66.66816 26.28517 11579 ft 280 kts 69°
2026-05-04 15:34 66.68401 26.37560 11583 ft 282 kts 69°
2026-05-04 15:35 66.69974 26.46632 11578 ft 281 kts 69°
2026-05-04 15:35 66.70747 26.51103 11581 ft 281 kts 69°
2026-05-04 15:35 66.71528 26.55624 11581 ft 280 kts 69°
2026-05-04 15:36 66.73086 26.64683 11582 ft 281 kts 69°
2026-05-04 15:36 66.73866 26.69232 11582 ft 282 kts 69°
2026-05-04 15:36 66.74643 26.73770 11582 ft 278 kts 69°
2026-05-04 15:37 66.75406 26.78240 11582 ft 276 kts 69°
2026-05-04 15:37 66.76149 26.82601 11072 ft 260 kts 69°
2026-05-04 15:37 66.76839 26.86659 10641 ft 252 kts 69°
2026-05-04 15:37 66.77539 26.90812 10584 ft 261 kts 69°
2026-05-04 15:38 66.78268 26.95130 10590 ft 269 kts 69°
2026-05-04 15:38 66.79000 26.99448 10593 ft 272 kts 69°
2026-05-04 15:38 66.79744 27.03864 10596 ft 273 kts 69°
2026-05-04 15:38 66.80570 27.08193 10584 ft 274 kts 57°
2026-05-04 15:39 66.82014 27.11305 10582 ft 275 kts 26°
2026-05-04 15:39 66.83846 27.12368 10580 ft 270 kts 355°
2026-05-04 15:39 66.86954 27.08331 10573 ft 251 kts 301°
2026-05-04 15:40 66.87659 27.04352 10571 ft 242 kts 277°
2026-05-04 15:40 66.87656 27.00223 10569 ft 225 kts 255°
2026-05-04 15:40 66.87143 26.96668 10572 ft 205 kts 244°
2026-05-04 15:40 66.86606 26.93473 10572 ft 190 kts 244°
2026-05-04 15:41 66.86098 26.90454 10569 ft 182 kts 245°
2026-05-04 15:41 66.86101 26.87248 10570 ft 194 kts 288°
2026-05-04 15:41 66.87128 26.84929 10569 ft 212 kts 336°
2026-05-04 15:41 66.88606 26.85126 10566 ft 223 kts 23°
2026-05-04 15:42 66.89666 26.87870 10573 ft 221 kts 70°
2026-05-04 15:42 66.89707 26.91568 10578 ft 206 kts 117°
2026-05-04 15:42 66.88781 26.93996 10575 ft 188 kts 165°
2026-05-04 15:42 66.87532 26.94659 10583 ft 190 kts 161°
2026-05-04 15:43 66.86639 26.97250 10579 ft 211 kts 114°
2026-05-04 15:43 66.86234 27.00810 10583 ft 205 kts 128°
2026-05-04 15:43 66.85193 27.03125 11079 ft 195 kts 152°
2026-05-04 15:43 66.84318 27.05786 11826 ft 207 kts 118°
2026-05-04 15:44 66.84103 27.09471 12546 ft 219 kts 89°
2026-05-04 15:44 66.84681 27.13112 13236 ft 229 kts 56°
2026-05-04 15:44 66.85999 27.15541 13594 ft 246 kts 19°
2026-05-04 15:44 66.87690 27.15669 13579 ft 240 kts 338°
2026-05-04 15:45 66.89121 27.13993 13578 ft 224 kts 325°
2026-05-04 15:45 66.90474 27.12077 13579 ft 222 kts 324°
2026-05-04 15:45 66.91829 27.10212 13578 ft 221 kts 326°
2026-05-04 15:45 66.93198 27.08387 13578 ft 224 kts 326°
2026-05-04 15:46 66.94597 27.06515 13583 ft 220 kts 326°
2026-05-04 15:46 66.95884 27.04811 13571 ft 210 kts 325°
2026-05-04 15:46 66.97168 27.03068 13835 ft 209 kts 325°
2026-05-04 15:46 66.98458 27.01325 14391 ft 210 kts 325°
2026-05-04 15:47 66.99706 26.99543 14568 ft 194 kts 315°
2026-05-04 15:47 67.00443 26.97163 14564 ft 162 kts 286°
2026-05-04 15:47 67.00708 26.94436 14570 ft 157 kts 264°
2026-05-04 15:47 67.00641 26.92633 14569 ft 151 kts 251°
2026-05-04 15:48 67.00225 26.90256 14573 ft 145 kts 232°
2026-05-04 15:48 66.99514 26.88483 14564 ft 143 kts 214°
2026-05-04 15:48 66.97614 26.87414 13699 ft 149 kts 177°
2026-05-04 15:49 66.96631 26.88344 13315 ft 155 kts 156°
2026-05-04 15:49 66.95829 26.90283 12871 ft 165 kts 133°
2026-05-04 15:49 66.95389 26.93063 12433 ft 176 kts 106°
2026-05-04 15:49 66.95475 26.96219 12015 ft 184 kts 76°
2026-05-04 15:50 66.96140 26.99017 11640 ft 186 kts 45°
2026-05-04 15:50 66.97171 27.00628 11562 ft 162 kts 14°
2026-05-04 15:50 66.98325 27.00962 11584 ft 175 kts 347°
2026-05-04 15:50 66.99461 26.99950 11587 ft 171 kts 319°
2026-05-04 15:51 67.00354 26.98087 11592 ft 165 kts 313°
2026-05-04 15:51 67.01271 26.96313 11587 ft 165 kts 315°
2026-05-04 15:51 67.02191 26.94548 11588 ft 165 kts 315°
2026-05-04 15:51 67.03110 26.92786 11587 ft 165 kts 315°
2026-05-04 15:52 67.04051 26.90963 11596 ft 178 kts 315°
2026-05-04 15:52 67.05085 26.88903 11592 ft 197 kts 315°
2026-05-04 15:52 67.06208 26.86608 11594 ft 216 kts 315°
2026-05-04 15:52 67.07424 26.84076 11592 ft 233 kts 315°
2026-05-04 15:53 67.08703 26.81373 11587 ft 243 kts 315°
2026-05-04 15:53 67.10013 26.78587 11584 ft 245 kts 315°
2026-05-04 15:53 67.11321 26.75803 11585 ft 244 kts 315°
2026-05-04 15:53 67.12488 26.72763 11570 ft 234 kts 294°
2026-05-04 15:54 67.12730 26.68902 11568 ft 221 kts 254°
2026-05-04 15:54 67.11913 26.65745 11570 ft 216 kts 215°
2026-05-04 15:54 67.10448 26.64911 11584 ft 230 kts 175°
2026-05-04 15:54 67.08994 26.66869 11611 ft 247 kts 143°
2026-05-04 15:55 67.07810 26.70127 11628 ft 252 kts 136°
2026-05-04 15:55 67.06678 26.73561 11643 ft 253 kts 135°
2026-05-04 15:55 67.05586 26.76951 12154 ft 238 kts 135°
2026-05-04 15:55 67.04550 26.80216 12556 ft 237 kts 135°
2026-05-04 15:56 67.03502 26.83524 12573 ft 243 kts 135°
2026-05-04 15:56 67.02443 26.86867 12566 ft 238 kts 135°
2026-05-04 15:56 67.01414 26.90125 12567 ft 234 kts 135°
2026-05-04 15:56 67.00391 26.93366 12568 ft 234 kts 135°
2026-05-04 15:57 66.99382 26.96620 12576 ft 234 kts 134°
2026-05-04 15:57 66.98160 26.99111 12570 ft 222 kts 166°
2026-05-04 15:57 66.96689 26.98923 12570 ft 213 kts 206°
2026-05-04 15:57 66.95507 26.96671 12580 ft 213 kts 222°
2026-05-04 15:58 66.94439 26.94053 12589 ft 213 kts 223°
2026-05-04 15:58 66.93382 26.91391 12588 ft 214 kts 224°
2026-05-04 15:58 66.92325 26.88714 12590 ft 214 kts 224°
2026-05-04 15:58 66.91264 26.85995 12578 ft 219 kts 224°
2026-05-04 15:59 66.90193 26.83217 12587 ft 220 kts 224°
2026-05-04 15:59 66.89123 26.80437 12366 ft 224 kts 224°
2026-05-04 15:59 66.88048 26.77658 11877 ft 215 kts 224°
2026-05-04 15:59 66.87004 26.74980 11394 ft 212 kts 224°
2026-05-04 16:00 66.86074 26.72110 10913 ft 211 kts 236°
2026-05-04 16:00 66.85369 26.68859 10450 ft 209 kts 240°
2026-05-04 16:00 66.84671 26.65639 9983 ft 207 kts 237°
2026-05-04 16:00 66.83912 26.62558 9603 ft 203 kts 236°
2026-05-04 16:01 66.83159 26.59606 9566 ft 200 kts 236°
2026-05-04 16:01 66.82396 26.56588 9572 ft 205 kts 236°
2026-05-04 16:01 66.81787 26.53296 9575 ft 208 kts 249°
2026-05-04 16:01 66.81141 26.50072 9572 ft 206 kts 231°
2026-05-04 16:02 66.80268 26.47314 9568 ft 184 kts 231°
2026-05-04 16:02 66.79591 26.44969 9555 ft 162 kts 234°
2026-05-04 16:02 66.78071 26.39106 9579 ft 223 kts 236°
2026-05-04 16:03 66.77244 26.35859 9577 ft 222 kts 236°
2026-05-04 16:03 66.76382 26.32505 9492 ft 233 kts 236°
2026-05-04 16:03 66.75497 26.29069 8411 ft 231 kts 235°
2026-05-04 16:03 66.74624 26.25680 7306 ft 230 kts 235°
2026-05-04 16:04 66.73749 26.22291 6212 ft 230 kts 234°
2026-05-04 16:04 66.71961 26.15389 3709 ft 239 kts 234°
2026-05-04 16:04 66.71055 26.11898 2617 ft 235 kts 234°
2026-05-04 16:05 66.69964 26.08889 1642 ft 228 kts 216°
2026-05-04 16:05 66.68792 26.06676 1548 ft 189 kts 216°
2026-05-04 16:05 66.66964 26.03118 1557 ft 169 kts 216°
2026-05-04 16:06 66.65984 26.01245 1557 ft 183 kts 215°
2026-05-04 16:06 66.63130 25.95761 1567 ft 197 kts 215°
2026-05-04 16:07 66.61681 25.92984 1560 ft 195 kts 216°
2026-05-04 16:07 66.59052 25.87941 1035 ft 101 kts 213°
2026-05-04 16:08 66.58499 25.86884 901 ft 96 kts 214°
2026-05-04 16:08 66.57091 25.84137 984 ft 79 kts 217°
2026-05-04 16:09 66.56091 25.82174 1580 ft 109 kts 214°
2026-05-04 16:09 66.54816 25.80056 1531 ft 109 kts 177°
2026-05-04 16:10 66.54071 25.83560 1547 ft 149 kts 67°
2026-05-04 16:11 66.55931 25.90122 1568 ft 154 kts 59°
2026-05-04 16:11 66.56553 25.92381 1406 ft 154 kts 55°
2026-05-04 16:12 66.58096 25.87244 1009 ft 116 kts 275°
2026-05-04 16:12 66.57023 25.84048 632 ft 41 kts 217°
2026-05-04 16:13 66.56748 25.83339 637 ft 2 kts
2026-05-04 16:13 66.56958 25.83188 636 ft 18 kts 317°